Time;durP1;ratioP1;P1;durP2;ratioP2;P2;SDS_P1;SDS_P2;PMS_P1;PMS_P2;Temp;Humidity;BMP_temperature;BMP_pressure;BME280_temperature;BME280_humidity;BME280_pressure;Samples;Min_cycle;Max_cycle;Signal;HPM_P1;HPM_P2
2023/05/15 00:01:18;;;;;;;10.80;9.27;;;;;;;;;;5048159;28;21008;-82
2023/05/15 00:03:45;;;;;;;12.20;10.00;;;;;;;;;;5040241;28;20926;-82
2023/05/15 00:06:11;;;;;;;11.70;10.60;;;;;;;;;;5037129;28;20476;-82
2023/05/15 00:08:37;;;;;;;10.93;10.03;;;;;;;;;;5036214;28;20479;-82
2023/05/15 00:11:04;;;;;;;11.23;10.13;;;;;;;;;;5043668;28;20974;-82
2023/05/15 00:13:32;;;;;;;13.10;12.00;;;;;;;;;;5043249;28;20449;-82
2023/05/15 00:15:58;;;;;;;12.17;11.07;;;;;;;;;;5042621;28;20987;-82
2023/05/15 00:18:24;;;;;;;13.53;11.70;;;;;;;;;;5038925;28;20444;-82
2023/05/15 00:20:52;;;;;;;12.67;11.47;;;;;;;;;;5038409;28;20467;-82
2023/05/15 00:23:18;;;;;;;13.13;11.83;;;;;;;;;;5049699;28;20452;-82
2023/05/15 00:25:44;;;;;;;12.50;11.30;;;;;;;;;;5038409;28;20495;-82
2023/05/15 00:28:11;;;;;;;11.93;10.53;;;;;;;;;;5038316;28;20469;-82
2023/05/15 00:30:38;;;;;;;11.53;10.53;;;;;;;;;;5034067;28;20810;-82
2023/05/15 00:33:05;;;;;;;11.30;10.30;;;;;;;;;;5039139;28;21006;-82
2023/05/15 00:35:32;;;;;;;12.10;10.23;;;;;;;;;;5044290;28;20521;-82
2023/05/15 00:37:58;;;;;;;11.27;10.17;;;;;;;;;;5043523;28;20631;-82
2023/05/15 00:40:25;;;;;;;14.00;11.10;;;;;;;;;;5043513;28;20449;-82
2023/05/15 00:42:52;;;;;;;12.70;11.50;;;;;;;;;;5036099;28;20467;-82
2023/05/15 00:45:19;;;;;;;16.23;12.53;;;;;;;;;;5033049;28;20496;-82
2023/05/15 00:47:47;;;;;;;10.83;9.90;;;;;;;;;;5038434;28;20487;-82
2023/05/15 00:50:14;;;;;;;14.17;10.90;;;;;;;;;;5047064;28;20455;-82
2023/05/15 00:52:40;;;;;;;12.17;10.97;;;;;;;;;;5042333;28;20478;-82
2023/05/15 00:55:07;;;;;;;13.73;12.37;;;;;;;;;;5043964;28;20824;-82
2023/05/15 00:57:34;;;;;;;13.00;11.80;;;;;;;;;;5041058;28;20480;-82
2023/05/15 01:00:01;;;;;;;11.60;10.50;;;;;;;;;;5041665;28;20510;-82
2023/05/15 01:02:27;;;;;;;14.03;12.73;;;;;;;;;;5041471;28;20472;-82
2023/05/15 01:04:55;;;;;;;13.43;12.07;;;;;;;;;;5039125;28;20495;-82
2023/05/15 01:07:21;;;;;;;13.20;11.87;;;;;;;;;;5044997;28;20468;-82
2023/05/15 01:09:49;;;;;;;14.57;12.97;;;;;;;;;;5043523;28;20452;-82
2023/05/15 01:12:15;;;;;;;11.57;10.37;;;;;;;;;;5042727;28;20468;-82
2023/05/15 01:14:42;;;;;;;12.60;11.47;;;;;;;;;;5038150;28;20457;-82
2023/05/15 01:17:08;;;;;;;13.47;12.17;;;;;;;;;;5040092;28;20472;-82
2023/05/15 01:19:35;;;;;;;13.43;11.73;;;;;;;;;;5038161;28;20448;-82
2023/05/15 01:22:19;;;;;;;14.03;12.80;;;;;;;;;;5038252;28;20533;-82
2023/05/15 01:24:58;;;;;;;13.20;11.37;;;;;;;;;;5036010;28;20492;-82
2023/05/15 01:27:30;;;;;;;14.77;12.57;;;;;;;;;;5036197;28;20551;-82
2023/05/15 01:29:59;;;;;;;14.33;12.93;;;;;;;;;;5037500;28;20449;-83
2023/05/15 01:32:29;;;;;;;14.63;13.17;;;;;;;;;;5042270;28;20472;-82
2023/05/15 01:35:01;;;;;;;14.50;12.33;;;;;;;;;;5042718;28;20465;-82
2023/05/15 01:37:29;;;;;;;15.20;13.60;;;;;;;;;;5041850;28;20555;-82
2023/05/15 01:39:57;;;;;;;16.10;13.93;;;;;;;;;;5037286;28;20466;-82
2023/05/15 01:42:27;;;;;;;16.40;14.70;;;;;;;;;;5039412;28;20480;-82
2023/05/15 01:44:56;;;;;;;14.70;13.20;;;;;;;;;;5041638;28;20495;-82
2023/05/15 01:47:27;;;;;;;14.40;13.07;;;;;;;;;;5031186;28;20911;-82
2023/05/15 01:49:54;;;;;;;15.90;13.50;;;;;;;;;;5035048;28;20450;-82
2023/05/15 01:52:24;;;;;;;16.10;14.50;;;;;;;;;;5041541;28;20839;-82
2023/05/15 01:54:50;;;;;;;15.70;14.17;;;;;;;;;;5039795;28;20550;-82
2023/05/15 01:57:20;;;;;;;15.57;13.97;;;;;;;;;;5040003;28;20461;-83
2023/05/15 01:59:47;;;;;;;16.70;14.80;;;;;;;;;;5040208;28;20920;-82
2023/05/15 02:02:15;;;;;;;14.37;13.07;;;;;;;;;;5040750;28;20467;-82
2023/05/15 02:04:44;;;;;;;16.27;14.07;;;;;;;;;;5038989;28;20496;-82
2023/05/15 02:07:11;;;;;;;16.07;13.93;;;;;;;;;;5039080;28;20477;-82
2023/05/15 02:09:37;;;;;;;17.60;15.33;;;;;;;;;;5033489;28;20956;-82
2023/05/15 02:12:04;;;;;;;17.33;15.53;;;;;;;;;;5027037;28;20479;-82
2023/05/15 02:14:31;;;;;;;15.83;14.33;;;;;;;;;;5038925;28;20447;-82
2023/05/15 02:16:57;;;;;;;14.70;12.97;;;;;;;;;;5028013;28;20845;-82
2023/05/15 02:19:25;;;;;;;16.20;14.60;;;;;;;;;;5045605;28;20468;-82
2023/05/15 02:21:55;;;;;;;16.17;14.43;;;;;;;;;;5043429;28;20475;-82
2023/05/15 02:24:21;;;;;;;24.73;16.80;;;;;;;;;;5038212;28;20445;-82
2023/05/15 02:26:55;;;;;;;17.63;15.80;;;;;;;;;;5042940;28;20479;-82
2023/05/15 02:29:23;;;;;;;16.60;14.90;;;;;;;;;;5042872;28;20806;-82
2023/05/15 02:31:52;;;;;;;19.30;16.70;;;;;;;;;;5040431;28;20481;-82
2023/05/15 02:34:26;;;;;;;19.63;17.70;;;;;;;;;;5039307;28;20454;-83
2023/05/15 02:36:55;;;;;;;17.70;15.80;;;;;;;;;;5045141;28;20460;-81
2023/05/15 02:39:22;;;;;;;18.30;16.23;;;;;;;;;;5045175;28;20447;-82
2023/05/15 02:41:51;;;;;;;17.77;15.87;;;;;;;;;;5040683;28;20737;-83
2023/05/15 02:44:17;;;;;;;17.83;14.80;;;;;;;;;;5041264;28;20458;-82
2023/05/15 02:46:44;;;;;;;15.80;14.23;;;;;;;;;;5040815;28;20480;-82
2023/05/15 02:49:11;;;;;;;17.53;15.57;;;;;;;;;;5031087;28;20456;-82
2023/05/15 02:51:37;;;;;;;19.13;15.23;;;;;;;;;;5041240;28;20477;-82
2023/05/15 02:54:07;;;;;;;21.40;15.83;;;;;;;;;;5048012;28;20518;-82
2023/05/15 02:56:34;;;;;;;15.80;14.23;;;;;;;;;;5042910;28;20530;-82
2023/05/15 02:59:00;;;;;;;15.30;13.70;;;;;;;;;;5040469;28;20448;-82
2023/05/15 03:01:26;;;;;;;18.23;15.40;;;;;;;;;;5037746;28;20977;-82
2023/05/15 03:03:53;;;;;;;17.90;15.97;;;;;;;;;;5042787;28;20463;-82
2023/05/15 03:06:19;;;;;;;17.80;16.00;;;;;;;;;;5049073;28;20472;-82
2023/05/15 03:08:45;;;;;;;20.00;16.53;;;;;;;;;;5035127;28;20437;-82
2023/05/15 03:11:13;;;;;;;18.87;16.87;;;;;;;;;;5036317;28;20479;-82
2023/05/15 03:13:39;;;;;;;21.73;18.47;;;;;;;;;;5041746;28;20447;-82
2023/05/15 03:16:06;;;;;;;24.73;19.10;;;;;;;;;;5028519;28;20461;-82
2023/05/15 03:18:32;;;;;;;21.57;19.33;;;;;;;;;;5046656;28;20444;-82
2023/05/15 03:20:58;;;;;;;20.83;17.83;;;;;;;;;;5047110;28;20463;-82
2023/05/15 03:23:25;;;;;;;18.07;16.10;;;;;;;;;;5038420;28;20452;-83
2023/05/15 03:25:51;;;;;;;19.60;16.80;;;;;;;;;;5040145;28;20483;-82
2023/05/15 03:28:19;;;;;;;18.67;16.67;;;;;;;;;;5040856;28;20826;-82
2023/05/15 03:30:45;;;;;;;18.93;16.90;;;;;;;;;;5042027;28;20456;-82
2023/05/15 03:33:11;;;;;;;19.13;17.07;;;;;;;;;;5044468;28;20471;-82
2023/05/15 03:35:38;;;;;;;20.50;18.30;;;;;;;;;;5046797;28;20482;-82
2023/05/15 03:38:04;;;;;;;18.70;16.80;;;;;;;;;;5037611;28;20557;-82
2023/05/15 03:40:30;;;;;;;19.67;15.60;;;;;;;;;;5036859;28;20449;-82
2023/05/15 03:42:57;;;;;;;20.77;16.80;;;;;;;;;;5035792;28;20476;-82
2023/05/15 03:45:24;;;;;;;24.33;20.17;;;;;;;;;;5039538;28;20499;-82
2023/05/15 03:47:51;;;;;;;25.63;21.30;;;;;;;;;;5037185;28;20476;-82
2023/05/15 03:50:17;;;;;;;26.47;20.37;;;;;;;;;;5043560;28;20467;-82
2023/05/15 03:52:43;;;;;;;24.40;21.07;;;;;;;;;;5049518;28;20475;-82
2023/05/15 03:55:10;;;;;;;28.37;22.10;;;;;;;;;;5043605;28;20464;-82
2023/05/15 03:57:36;;;;;;;28.23;23.40;;;;;;;;;;5044476;28;20467;-82
2023/05/15 04:00:08;;;;;;;34.27;25.33;;;;;;;;;;5043065;28;20447;-82
2023/05/15 04:02:36;;;;;;;53.93;35.40;;;;;;;;;;5041050;28;20556;-82
2023/05/15 04:05:03;;;;;;;48.17;35.00;;;;;;;;;;5038637;28;21002;-82
2023/05/15 04:07:30;;;;;;;53.17;35.07;;;;;;;;;;5041482;28;20464;-82
2023/05/15 04:10:00;;;;;;;52.50;36.77;;;;;;;;;;5038112;28;20444;-82
2023/05/15 04:12:28;;;;;;;60.73;37.20;;;;;;;;;;5037068;28;20468;-82
2023/05/15 04:14:54;;;;;;;56.50;39.20;;;;;;;;;;5038085;28;20484;-82
2023/05/15 04:17:21;;;;;;;61.47;42.03;;;;;;;;;;5045766;28;20476;-82
2023/05/15 04:19:48;;;;;;;65.90;45.50;;;;;;;;;;5042592;28;20448;-82
2023/05/15 04:22:14;;;;;;;66.53;46.00;;;;;;;;;;5035364;28;20473;-82
2023/05/15 04:24:41;;;;;;;75.37;48.03;;;;;;;;;;5036861;28;20495;-82
2023/05/15 04:27:07;;;;;;;65.07;43.27;;;;;;;;;;5029957;28;20474;-82
2023/05/15 04:29:34;;;;;;;75.27;45.73;;;;;;;;;;5033562;28;20453;-82
2023/05/15 04:32:01;;;;;;;73.00;47.70;;;;;;;;;;5041903;28;20475;-82
2023/05/15 04:34:28;;;;;;;81.40;47.30;;;;;;;;;;5042104;28;20445;-82
2023/05/15 04:36:55;;;;;;;83.40;49.83;;;;;;;;;;5041850;28;20480;-82
2023/05/15 04:39:22;;;;;;;72.73;48.27;;;;;;;;;;5042900;28;20444;-82
2023/05/15 04:41:49;;;;;;;80.03;51.80;;;;;;;;;;5035184;28;20480;-82
2023/05/15 04:44:16;;;;;;;79.13;48.80;;;;;;;;;;5040231;28;20445;-82
2023/05/15 04:46:42;;;;;;;81.17;50.23;;;;;;;;;;5040254;28;20476;-82
2023/05/15 04:49:08;;;;;;;75.20;48.13;;;;;;;;;;5045378;28;20445;-82
2023/05/15 04:51:35;;;;;;;72.00;48.20;;;;;;;;;;5039510;28;21021;-82
2023/05/15 04:54:02;;;;;;;84.53;53.27;;;;;;;;;;5035612;28;20444;-82
2023/05/15 04:56:29;;;;;;;82.13;49.27;;;;;;;;;;5038209;28;20988;-82
2023/05/15 04:58:55;;;;;;;77.50;50.40;;;;;;;;;;5039124;28;20445;-82
2023/05/15 05:01:21;;;;;;;79.57;49.47;;;;;;;;;;5040612;28;20472;-82
2023/05/15 05:03:48;;;;;;;80.17;50.43;;;;;;;;;;5037780;28;20440;-83
2023/05/15 05:06:14;;;;;;;83.23;50.90;;;;;;;;;;5034468;28;20480;-82
2023/05/15 05:08:40;;;;;;;86.57;50.90;;;;;;;;;;5035655;28;20455;-82
2023/05/15 05:11:08;;;;;;;79.77;49.93;;;;;;;;;;5041559;28;20448;-82
2023/05/15 05:13:34;;;;;;;72.47;47.17;;;;;;;;;;5035312;28;20449;-82
2023/05/15 05:16:01;;;;;;;71.33;46.30;;;;;;;;;;5038776;28;20568;-82
2023/05/15 05:18:27;;;;;;;79.80;48.40;;;;;;;;;;5038164;28;20448;-83
2023/05/15 05:20:58;;;;;;;77.17;48.47;;;;;;;;;;5038223;28;20451;-82
2023/05/15 05:23:25;;;;;;;74.23;49.00;;;;;;;;;;5033617;28;20444;-82
2023/05/15 05:25:51;;;;;;;73.97;47.40;;;;;;;;;;5048843;28;20487;-82
2023/05/15 05:28:18;;;;;;;73.47;48.40;;;;;;;;;;5029924;28;20467;-82
2023/05/15 05:30:45;;;;;;;78.83;49.20;;;;;;;;;;5034973;28;20464;-82
2023/05/15 05:33:11;;;;;;;82.07;49.33;;;;;;;;;;5032711;28;20469;-82
2023/05/15 05:35:38;;;;;;;72.33;48.57;;;;;;;;;;5037861;28;20460;-82
2023/05/15 05:38:04;;;;;;;75.30;47.70;;;;;;;;;;5039418;28;20547;-82
2023/05/15 05:40:30;;;;;;;72.80;47.37;;;;;;;;;;5037490;28;20451;-82
2023/05/15 05:42:58;;;;;;;72.57;44.97;;;;;;;;;;5035180;28;20472;-82
2023/05/15 05:45:26;;;;;;;76.73;46.93;;;;;;;;;;5035445;28;20472;-82
2023/05/15 05:47:52;;;;;;;75.33;47.20;;;;;;;;;;5042017;28;20475;-82
2023/05/15 05:50:19;;;;;;;72.90;46.20;;;;;;;;;;5037637;28;20821;-82
2023/05/15 05:52:45;;;;;;;75.80;46.80;;;;;;;;;;5040169;28;20994;-82
2023/05/15 05:55:11;;;;;;;78.33;48.17;;;;;;;;;;5040984;28;20473;-82
2023/05/15 05:57:37;;;;;;;75.73;46.00;;;;;;;;;;5047572;28;20828;-82
2023/05/15 06:00:05;;;;;;;67.90;39.80;;;;;;;;;;5037937;28;20457;-82
2023/05/15 06:02:33;;;;;;;63.60;37.87;;;;;;;;;;5037560;28;20460;-82
2023/05/15 06:04:59;;;;;;;61.23;37.40;;;;;;;;;;5040417;28;20866;-82
2023/05/15 06:07:26;;;;;;;59.97;36.50;;;;;;;;;;5048402;28;20483;-83
2023/05/15 06:09:52;;;;;;;61.03;36.03;;;;;;;;;;5040217;28;20483;-82
2023/05/15 06:12:18;;;;;;;60.93;36.00;;;;;;;;;;5048297;28;20809;-82
2023/05/15 06:14:45;;;;;;;69.90;39.63;;;;;;;;;;5043394;28;20473;-83
2023/05/15 06:17:11;;;;;;;68.17;39.73;;;;;;;;;;5039952;28;20939;-82
2023/05/15 06:19:39;;;;;;;65.03;37.87;;;;;;;;;;5037227;28;20463;-82
2023/05/15 06:22:05;;;;;;;65.27;38.17;;;;;;;;;;5046471;28;20444;-82
2023/05/15 06:24:31;;;;;;;62.93;39.00;;;;;;;;;;5038880;28;20464;-82
2023/05/15 06:26:58;;;;;;;54.67;35.47;;;;;;;;;;5042562;28;20484;-82
2023/05/15 06:29:25;;;;;;;60.53;37.57;;;;;;;;;;5049527;28;20452;-82
2023/05/15 06:31:51;;;;;;;57.57;37.17;;;;;;;;;;5041036;28;20839;-82
2023/05/15 06:34:17;;;;;;;54.37;34.80;;;;;;;;;;5050816;28;20459;-82
2023/05/15 06:36:45;;;;;;;53.30;34.40;;;;;;;;;;5047165;28;20464;-82
2023/05/15 06:39:11;;;;;;;49.93;35.13;;;;;;;;;;5043418;28;20453;-83
2023/05/15 06:41:38;;;;;;;53.30;34.93;;;;;;;;;;5044065;28;20472;-82
2023/05/15 06:44:04;;;;;;;48.20;35.47;;;;;;;;;;5031769;28;20454;-82
2023/05/15 06:46:30;;;;;;;45.83;31.03;;;;;;;;;;5039592;28;20480;-82
2023/05/15 06:48:57;;;;;;;45.97;32.73;;;;;;;;;;5042586;28;20869;-82
2023/05/15 06:51:23;;;;;;;47.53;32.00;;;;;;;;;;5042517;28;21050;-82
2023/05/15 06:53:51;;;;;;;50.57;31.40;;;;;;;;;;5045202;28;20875;-82
2023/05/15 06:56:17;;;;;;;45.07;30.43;;;;;;;;;;5040662;28;20821;-82
2023/05/15 06:58:43;;;;;;;47.53;31.10;;;;;;;;;;5043569;28;20452;-82
2023/05/15 07:01:10;;;;;;;44.57;29.90;;;;;;;;;;5038650;28;20861;-82
2023/05/15 07:03:36;;;;;;;47.77;31.00;;;;;;;;;;5039886;28;20418;-82
2023/05/15 07:06:04;;;;;;;45.90;30.40;;;;;;;;;;5043648;28;20487;-82
2023/05/15 07:08:30;;;;;;;44.10;30.93;;;;;;;;;;5044551;28;20451;-82
2023/05/15 07:10:58;;;;;;;48.10;32.70;;;;;;;;;;5041047;28;20472;-82
2023/05/15 07:13:24;;;;;;;50.50;32.77;;;;;;;;;;5042902;28;20453;-82
2023/05/15 07:15:51;;;;;;;43.57;30.90;;;;;;;;;;5037316;28;20552;-82
2023/05/15 07:18:17;;;;;;;43.27;29.67;;;;;;;;;;5025683;28;20449;-82
2023/05/15 07:20:43;;;;;;;47.30;30.20;;;;;;;;;;5036353;28;20851;-82
2023/05/15 07:23:10;;;;;;;40.30;28.20;;;;;;;;;;5044017;28;20444;-83
2023/05/15 07:25:36;;;;;;;45.43;30.03;;;;;;;;;;5042344;28;20877;-82
2023/05/15 07:28:04;;;;;;;43.00;26.93;;;;;;;;;;5037790;28;20515;-82
2023/05/15 07:30:30;;;;;;;39.70;28.03;;;;;;;;;;5034511;28;20451;-82
2023/05/15 07:32:57;;;;;;;37.70;25.80;;;;;;;;;;5039443;28;20444;-83
2023/05/15 07:35:23;;;;;;;36.90;27.43;;;;;;;;;;5037728;28;20819;-82
2023/05/15 07:37:49;;;;;;;36.83;25.53;;;;;;;;;;5042906;28;20419;-82
2023/05/15 07:40:16;;;;;;;36.27;24.70;;;;;;;;;;5040701;28;20471;-82
2023/05/15 07:42:43;;;;;;;37.03;24.97;;;;;;;;;;5045229;28;20434;-82
2023/05/15 07:45:11;;;;;;;35.37;24.20;;;;;;;;;;5037569;28;20447;-82
2023/05/15 07:47:37;;;;;;;35.33;24.70;;;;;;;;;;5049056;28;20462;-82
2023/05/15 07:50:05;;;;;;;39.47;26.80;;;;;;;;;;5044233;28;20454;-82
2023/05/15 07:52:31;;;;;;;34.70;23.90;;;;;;;;;;5045380;28;20423;-83
2023/05/15 07:54:58;;;;;;;30.93;22.67;;;;;;;;;;5045956;28;20458;-82
2023/05/15 07:57:25;;;;;;;31.60;24.27;;;;;;;;;;5036586;28;20861;-82
2023/05/15 07:59:51;;;;;;;28.70;21.50;;;;;;;;;;5036752;28;20469;-83
2023/05/15 08:02:19;;;;;;;30.57;23.37;;;;;;;;;;5039444;28;20452;-82
2023/05/15 08:04:45;;;;;;;30.07;22.67;;;;;;;;;;5044606;28;20470;-82
2023/05/15 08:07:13;;;;;;;27.57;21.63;;;;;;;;;;5033563;28;20484;-83
2023/05/15 08:09:39;;;;;;;26.70;20.73;;;;;;;;;;5032617;28;20994;-82
2023/05/15 08:12:19;;;;;;;23.07;18.53;;;;;;;;;;5043628;28;20518;-82
2023/05/15 08:14:45;;;;;;;29.70;21.77;;;;;;;;;;5037616;28;20480;-82
2023/05/15 08:17:12;;;;;;;25.37;20.80;;;;;;;;;;5038958;28;20419;-82
2023/05/15 08:19:40;;;;;;;31.03;22.07;;;;;;;;;;5039763;28;20462;-82
2023/05/15 08:22:06;;;;;;;29.03;20.80;;;;;;;;;;5032971;28;20482;-83
2023/05/15 08:24:33;;;;;;;24.40;20.70;;;;;;;;;;5042975;28;20449;-83
2023/05/15 08:26:59;;;;;;;31.57;22.70;;;;;;;;;;5029512;28;20483;-82
2023/05/15 08:29:26;;;;;;;28.70;20.27;;;;;;;;;;5036105;28;20448;-82
2023/05/15 08:31:52;;;;;;;25.43;21.13;;;;;;;;;;5046541;28;20443;-83
2023/05/15 08:34:18;;;;;;;23.60;20.43;;;;;;;;;;5037523;28;20456;-83
2023/05/15 08:36:46;;;;;;;24.37;20.23;;;;;;;;;;5043231;28;20491;-83
2023/05/15 08:39:12;;;;;;;21.43;19.17;;;;;;;;;;5035328;28;20449;-82
2023/05/15 08:41:42;;;;;;;23.80;19.13;;;;;;;;;;5038719;28;20426;-83
2023/05/15 08:44:09;;;;;;;23.83;19.03;;;;;;;;;;5040561;28;20452;-83
2023/05/15 08:46:35;;;;;;;22.70;19.83;;;;;;;;;;5044444;28;20469;-83
2023/05/15 08:49:03;;;;;;;27.23;20.60;;;;;;;;;;5040383;28;20444;-82
2023/05/15 08:51:29;;;;;;;22.10;19.17;;;;;;;;;;5045202;28;20487;-83
2023/05/15 08:53:57;;;;;;;23.30;19.67;;;;;;;;;;5039514;28;20451;-83
2023/05/15 08:56:23;;;;;;;25.03;19.90;;;;;;;;;;5035913;28;20489;-82
2023/05/15 08:58:50;;;;;;;24.90;21.20;;;;;;;;;;5039940;28;20441;-83
2023/05/15 09:01:16;;;;;;;24.20;20.73;;;;;;;;;;5042142;28;20885;-82
2023/05/15 09:03:43;;;;;;;29.03;23.63;;;;;;;;;;5047301;28;20489;-82
2023/05/15 09:06:09;;;;;;;25.70;21.47;;;;;;;;;;5039519;28;20831;-82
2023/05/15 09:08:36;;;;;;;34.77;25.33;;;;;;;;;;5043750;28;20483;-82
2023/05/15 09:11:06;;;;;;;31.93;24.13;;;;;;;;;;5043052;28;20496;-83
2023/05/15 09:13:33;;;;;;;27.20;22.23;;;;;;;;;;5043006;28;20938;-83
2023/05/15 09:15:59;;;;;;;27.83;23.70;;;;;;;;;;5035804;28;20478;-83
2023/05/15 09:18:26;;;;;;;27.43;23.87;;;;;;;;;;5041057;28;20440;-83
2023/05/15 09:20:52;;;;;;;29.57;23.70;;;;;;;;;;5040625;28;20476;-83
2023/05/15 09:23:23;;;;;;;31.00;24.40;;;;;;;;;;5037442;28;20458;-82
2023/05/15 09:25:52;;;;;;;30.93;25.33;;;;;;;;;;5030838;28;20481;-83
2023/05/15 09:28:29;;;;;;;29.30;23.97;;;;;;;;;;5035339;28;20484;-83
2023/05/15 09:31:00;;;;;;;32.30;25.07;;;;;;;;;;5038128;28;20476;-82
2023/05/15 09:33:30;;;;;;;29.53;23.70;;;;;;;;;;5034561;28;20483;-82
2023/05/15 09:35:57;;;;;;;28.77;25.00;;;;;;;;;;5034439;28;20476;-83
2023/05/15 09:38:23;;;;;;;30.13;24.77;;;;;;;;;;5040542;28;20828;-83
2023/05/15 09:40:50;;;;;;;33.60;25.13;;;;;;;;;;5043669;28;20467;-83
2023/05/15 09:43:18;;;;;;;26.90;23.20;;;;;;;;;;5035675;28;20885;-83
2023/05/15 09:45:48;;;;;;;25.60;22.30;;;;;;;;;;5040330;28;20483;-82
2023/05/15 09:48:14;;;;;;;24.37;21.90;;;;;;;;;;5040605;28;20491;-83
2023/05/15 09:50:41;;;;;;;26.13;22.43;;;;;;;;;;5042171;28;20476;-83
2023/05/15 09:53:10;;;;;;;25.57;21.87;;;;;;;;;;5037023;28;20448;-83
2023/05/15 09:55:37;;;;;;;24.33;21.77;;;;;;;;;;5041624;28;20473;-82
2023/05/15 09:58:04;;;;;;;27.20;22.10;;;;;;;;;;5040530;28;20437;-82
2023/05/15 10:00:30;;;;;;;25.57;20.70;;;;;;;;;;5039301;28;20474;-83
2023/05/15 10:02:58;;;;;;;25.70;22.60;;;;;;;;;;5038689;28;20441;-82
2023/05/15 10:05:26;;;;;;;24.43;21.37;;;;;;;;;;5034931;28;20488;-83
2023/05/15 10:07:54;;;;;;;25.80;20.40;;;;;;;;;;5046663;28;20484;-83
2023/05/15 10:10:20;;;;;;;19.10;16.30;;;;;;;;;;5041753;28;20495;-83
2023/05/15 10:12:47;;;;;;;23.50;19.50;;;;;;;;;;5037756;28;20452;-82
2023/05/15 10:15:14;;;;;;;22.73;19.90;;;;;;;;;;5040795;28;20495;-83
2023/05/15 10:17:41;;;;;;;23.73;20.30;;;;;;;;;;5039141;28;20537;-83
2023/05/15 10:20:10;;;;;;;20.00;17.90;;;;;;;;;;5031766;28;20475;-83
2023/05/15 10:22:37;;;;;;;20.13;17.97;;;;;;;;;;5038636;28;20564;-82
2023/05/15 10:25:09;;;;;;;18.93;17.00;;;;;;;;;;5033412;28;20475;-83
2023/05/15 10:27:36;;;;;;;19.80;17.70;;;;;;;;;;5036776;28;20845;-82
2023/05/15 10:30:03;;;;;;;18.07;16.27;;;;;;;;;;5032940;28;20485;-82
2023/05/15 10:32:29;;;;;;;22.40;19.23;;;;;;;;;;5034721;28;20451;-83
2023/05/15 10:34:56;;;;;;;20.77;18.57;;;;;;;;;;5039289;28;20467;-82
2023/05/15 10:37:24;;;;;;;18.77;16.90;;;;;;;;;;5038394;28;20453;-83
2023/05/15 10:39:54;;;;;;;22.10;19.77;;;;;;;;;;5037163;28;20481;-82
2023/05/15 10:42:21;;;;;;;21.27;18.80;;;;;;;;;;5039403;28;20453;-82
2023/05/15 10:44:48;;;;;;;16.47;14.77;;;;;;;;;;5041631;28;20479;-83
2023/05/15 10:47:14;;;;;;;18.60;16.47;;;;;;;;;;5043700;28;20452;-82
2023/05/15 10:49:40;;;;;;;22.53;16.97;;;;;;;;;;5040209;28;20468;-82
2023/05/15 10:52:06;;;;;;;19.63;16.60;;;;;;;;;;5047148;28;20440;-82
2023/05/15 10:54:35;;;;;;;18.70;16.80;;;;;;;;;;5042486;28;20483;-83
2023/05/15 10:57:01;;;;;;;17.50;15.67;;;;;;;;;;5040300;28;20452;-82
2023/05/15 10:59:31;;;;;;;17.20;15.47;;;;;;;;;;5035492;28;21018;-82
2023/05/15 11:01:57;;;;;;;18.97;14.00;;;;;;;;;;5030528;28;20945;-82
2023/05/15 11:04:25;;;;;;;15.47;12.20;;;;;;;;;;5042078;28;20451;-82
2023/05/15 11:07:10;;;;;;;13.60;11.93;;;;;;;;;;5041620;28;20445;-82
2023/05/15 11:09:39;;;;;;;12.90;11.03;;;;;;;;;;5040723;28;20463;-82
2023/05/15 11:12:05;;;;;;;13.90;11.93;;;;;;;;;;5040445;28;20501;-82
2023/05/15 11:14:33;;;;;;;16.27;13.33;;;;;;;;;;5040076;28;20847;-82
2023/05/15 11:17:02;;;;;;;13.30;12.10;;;;;;;;;;5041822;28;20471;-82
2023/05/15 11:19:39;;;;;;;15.10;13.17;;;;;;;;;;5041482;28;20468;-82
2023/05/15 11:22:16;;;;;;;15.50;13.90;;;;;;;;;;5041725;28;20535;-82
2023/05/15 11:25:00;;;;;;;12.90;11.60;;;;;;;;;;5038890;28;20472;-82
2023/05/15 11:27:27;;;;;;;15.77;14.20;;;;;;;;;;5039388;28;20433;-82
2023/05/15 11:30:06;;;;;;;15.10;13.60;;;;;;;;;;5040391;28;20472;-82
2023/05/15 11:32:40;;;;;;;16.57;14.03;;;;;;;;;;5045731;28;20463;-82
2023/05/15 11:35:09;;;;;;;14.40;12.90;;;;;;;;;;5043088;28;20479;-82
2023/05/15 11:37:37;;;;;;;15.50;13.80;;;;;;;;;;5041992;28;20443;-82
2023/05/15 11:40:07;;;;;;;17.67;14.40;;;;;;;;;;5048793;28;20499;-82
2023/05/15 11:42:33;;;;;;;17.67;15.80;;;;;;;;;;5037547;28;20446;-82
2023/05/15 11:44:59;;;;;;;16.43;14.73;;;;;;;;;;5025076;28;20477;-82
2023/05/15 11:47:25;;;;;;;16.80;14.20;;;;;;;;;;5036543;28;20949;-82
2023/05/15 11:49:52;;;;;;;16.53;14.83;;;;;;;;;;5040758;28;20464;-82
2023/05/15 11:52:19;;;;;;;15.10;13.70;;;;;;;;;;5040210;28;20456;-82
2023/05/15 11:54:46;;;;;;;15.27;13.23;;;;;;;;;;5037227;28;20467;-82
2023/05/15 11:57:14;;;;;;;14.97;13.67;;;;;;;;;;5036990;28;20444;-82
2023/05/15 11:59:40;;;;;;;13.93;12.50;;;;;;;;;;5044543;28;20467;-82
2023/05/15 12:02:06;;;;;;;13.50;12.27;;;;;;;;;;5037325;28;20453;-82
2023/05/15 12:04:34;;;;;;;12.90;11.60;;;;;;;;;;5040377;28;20551;-82
2023/05/15 12:07:00;;;;;;;13.27;12.00;;;;;;;;;;5049864;28;20447;-82
2023/05/15 12:09:27;;;;;;;12.33;11.13;;;;;;;;;;5041239;28;20493;-82
2023/05/15 12:11:54;;;;;;;12.80;11.60;;;;;;;;;;5042725;28;20869;-82
2023/05/15 12:14:27;;;;;;;13.57;12.40;;;;;;;;;;5042371;28;20459;-82
2023/05/15 12:16:56;;;;;;;15.97;14.37;;;;;;;;;;5040165;28;20445;-82
2023/05/15 12:19:27;;;;;;;16.00;14.60;;;;;;;;;;5032479;28;20456;-82
2023/05/15 12:21:53;;;;;;;16.27;14.77;;;;;;;;;;5036101;28;20952;-82
2023/05/15 12:24:20;;;;;;;16.47;14.87;;;;;;;;;;5040994;28;20460;-82
2023/05/15 12:26:46;;;;;;;16.67;14.40;;;;;;;;;;5040244;28;20798;-82
2023/05/15 12:29:13;;;;;;;15.17;13.67;;;;;;;;;;5039457;28;20523;-82
2023/05/15 12:31:40;;;;;;;14.17;12.77;;;;;;;;;;5043412;28;20947;-82
2023/05/15 12:34:07;;;;;;;16.07;14.30;;;;;;;;;;5036127;28;20463;-82
2023/05/15 12:36:33;;;;;;;19.13;14.47;;;;;;;;;;5041736;28;20472;-82
2023/05/15 12:39:04;;;;;;;17.73;15.93;;;;;;;;;;5035306;28;20520;-82
2023/05/15 12:41:31;;;;;;;16.30;14.60;;;;;;;;;;5041100;28;20472;-82
2023/05/15 12:43:57;;;;;;;17.17;15.37;;;;;;;;;;5045322;28;20439;-82
2023/05/15 12:46:25;;;;;;;21.57;18.73;;;;;;;;;;5038032;28;20471;-82
2023/05/15 12:48:52;;;;;;;20.77;18.70;;;;;;;;;;5041160;28;20487;-82
2023/05/15 12:51:22;;;;;;;20.10;18.10;;;;;;;;;;5036333;28;21004;-82
2023/05/15 12:53:48;;;;;;;20.37;18.27;;;;;;;;;;5033732;28;20845;-82
2023/05/15 12:56:17;;;;;;;20.60;18.40;;;;;;;;;;5029952;28;20475;-82
2023/05/15 12:58:44;;;;;;;20.67;18.00;;;;;;;;;;5041941;28;20931;-82
2023/05/15 13:01:10;;;;;;;21.50;18.33;;;;;;;;;;5034452;28;20568;-83
2023/05/15 13:03:36;;;;;;;19.63;17.77;;;;;;;;;;5041978;28;20445;-82
2023/05/15 13:06:05;;;;;;;24.53;18.07;;;;;;;;;;5023432;28;20474;-81
2023/05/15 13:08:32;;;;;;;19.67;17.70;;;;;;;;;;5041266;28;20487;-82
2023/05/15 13:10:59;;;;;;;19.13;17.07;;;;;;;;;;5038147;28;20552;-81
2023/05/15 13:13:39;;;;;;;17.77;16.07;;;;;;;;;;5033713;28;20437;-82
2023/05/15 13:16:06;;;;;;;17.57;15.67;;;;;;;;;;5036115;28;20503;-82
2023/05/15 13:18:32;;;;;;;15.40;13.90;;;;;;;;;;5037416;28;20445;-82
2023/05/15 13:20:58;;;;;;;16.07;14.47;;;;;;;;;;5035270;28;20468;-82
2023/05/15 13:23:26;;;;;;;18.67;14.80;;;;;;;;;;5040571;28;20441;-82
2023/05/15 13:25:52;;;;;;;15.63;14.03;;;;;;;;;;5036629;28;20476;-82
2023/05/15 13:28:19;;;;;;;16.23;14.60;;;;;;;;;;5041461;28;20993;-82
2023/05/15 13:30:45;;;;;;;15.50;13.90;;;;;;;;;;5045763;28;20464;-82
2023/05/15 13:33:12;;;;;;;15.33;14.03;;;;;;;;;;5032684;28;20460;-82
2023/05/15 13:35:39;;;;;;;14.10;12.80;;;;;;;;;;5044927;28;20556;-82
2023/05/15 13:38:05;;;;;;;15.03;13.83;;;;;;;;;;5039223;28;20449;-82
2023/05/15 13:40:35;;;;;;;13.70;12.40;;;;;;;;;;5040508;28;20491;-82
2023/05/15 13:43:01;;;;;;;13.60;12.20;;;;;;;;;;5046520;28;20530;-82
2023/05/15 13:45:28;;;;;;;12.93;11.63;;;;;;;;;;5037733;28;20523;-82
2023/05/15 13:47:54;;;;;;;11.80;10.77;;;;;;;;;;5043883;28;20452;-82
2023/05/15 13:50:21;;;;;;;14.13;11.83;;;;;;;;;;5045012;28;20472;-82
2023/05/15 13:52:47;;;;;;;13.77;12.30;;;;;;;;;;5035024;28;20855;-82
2023/05/15 13:55:13;;;;;;;13.00;11.90;;;;;;;;;;5039949;28;20974;-82
2023/05/15 13:57:41;;;;;;;12.03;11.00;;;;;;;;;;5042727;28;20539;-82
2023/05/15 14:00:10;;;;;;;11.30;10.30;;;;;;;;;;5033227;28;20826;-82
2023/05/15 14:02:37;;;;;;;10.43;9.53;;;;;;;;;;5034476;28;20825;-82
2023/05/15 14:05:04;;;;;;;16.43;11.83;;;;;;;;;;5033637;28;20485;-82
2023/05/15 14:07:30;;;;;;;13.50;12.20;;;;;;;;;;5039775;28;20452;-82
2023/05/15 14:09:56;;;;;;;14.17;12.77;;;;;;;;;;5045259;28;20467;-82
2023/05/15 14:12:23;;;;;;;14.07;12.60;;;;;;;;;;5022687;28;20464;-82
2023/05/15 14:14:50;;;;;;;15.27;13.67;;;;;;;;;;5037413;28;20476;-82
2023/05/15 14:17:17;;;;;;;17.00;12.73;;;;;;;;;;5039720;28;20459;-82